Hibernia, New Jersey
Current Conditions -  °F | °C
As of 10:45 AM on Tuesday 21 Oct 2014 (Local Time) from KMMU Reporting Station
Overcast Overcast  
Wind Chill: 57°   Ceiling: 6000
Heat Index: 57°   Visibility: 10mi
Dew Point: 52°   Wind: 5mph
Humidity: 82%   Direction: 40°NE
Pressure: 29.9"   Gusts: NA
Location:  40.94°N, 74.49°W
Report Text: KMMU 211445Z 04004KT 10SM OVC060 14/11 A2990 RMK BINOVC
Loading
Personal Weather Stations






























Interactive Weather Map
Tropical Storm Tracking
New forecast layout! Learn more

10-Day Weather Forecast

Advertisements
Track Severe Weather on mobile